Terminal Aerodrome Forecast
Issued by NWS Shreveport, LA

Home | Current Version | Previous Version | Text Only | Print | Product List | Glossary On
Versions: 1 2 3 4 5 6 7 8 9 10 11 12 13 14
000
FTUS44 KSHV 041615 AAA
TAFELD
TAF AMD
KELD 041615Z 0416/0512 03006KT P6SM VCTS SCT005 BKN080CB
      TEMPO 0416/0419 VRB15G30KT 1SM TSRA OVC003CB
     FM050000 16003KT P6SM BKN250=

USA.gov is the U.S. government's official web portal to all federal, state and local government web resources and services.